• Join FlightAware (Why Join?)
  • Login
  • US Flag 
10:10PM EST


 

Airport Tracker/Info


-or-


 

Live Flight TrackerFlight Track Log ✈ ASQ5311 ✈ 19-Apr-2014 ✈ KATL - KTRI

Flight Track Log - Related Links

Times and Time Zones

All times are in EDT time to prevent confusion due to time zone crossing. See the ASQ5311 flight status page for this flight to view local times or setup timezone preferences in your user account.

Time Position Orientation Groundspeed Altitude Reporting Facility
EDT Latitude Longitude Course Direction KTS MPH feet Rate Location/Type
06:13PM 33.6456 -84.3781 North 388 447 2,800  Level Atlanta Center
06:14PM 33.6625 -84.2958 76° East 283 326 6,100 2,820 Climbing Atlanta Center
06:15PM 33.7272 -84.2686 19° North 264 304 8,500 2,100 Climbing Atlanta Center
06:16PM 33.8003 -84.2714 358° North 295 339 10,400 1,680 Climbing Atlanta Center
06:17PM 33.8922 -84.2717 360° North 313 360 11,900 1,620 Climbing Atlanta Center
06:18PM 33.9903 -84.2744 359° North 337 388 13,700 1,680 Climbing Atlanta Center
06:19PM 33.9881 -84.2667 North  Level FlightAware Approximate
06:19PM 34.0861 -84.2794 358° North 342 394 15,300  Level Atlanta Center
06:20PM 34.1906 -84.2800 360° North 352 405 16,700 1,320 Climbing Atlanta Center
06:21PM 34.2950 -84.2803 360° North 369 425 18,000 1,260 Climbing Atlanta Center
06:22PM 34.3869 -84.2225 27° Northeast 358 412 19,300 1,200 Climbing Atlanta Center
06:23PM 34.4747 -84.1497 34° Northeast 358 412 20,500 1,140 Climbing Atlanta Center
06:24PM 34.5622 -84.0767 35° Northeast 373 429 21,600 1,020 Climbing Atlanta Center
06:25PM 34.6519 -84.0033 34° Northeast 382 440 22,600 660 Climbing Atlanta Center
06:26PM 34.7397 -83.9325 34° Northeast 376 433 23,000 180 Climbing Atlanta Center
06:27PM 34.8356 -83.8514 35° Northeast 404 465 23,000  Level Atlanta Center
06:28PM 34.9211 -83.7856 32° Northeast 412 474 23,000  Level Atlanta Center
06:29PM 35.0189 -83.7014 35° Northeast 399 459 23,000  Level Atlanta Center
06:30PM 35.1106 -83.6250 34° Northeast 394 453 23,000  Level Atlanta Center
06:31PM 35.2019 -83.5481 35° Northeast 394 453 23,000 -540 Level Atlanta Center
06:32PM 35.2914 -83.4739 34° Northeast 394 453 22,000 -1,020 Descending Atlanta Center
06:33PM 35.3808 -83.3994 34° Northeast 394 453 21,000 -1,020 Descending Atlanta Center
06:34PM 35.4722 -83.3247 34° Northeast 394 453 20,000 -1,020 Descending Atlanta Center
06:35PM 35.5592 -83.2500 35° Northeast 394 453 19,000 -1,080 Descending Atlanta Center
06:36PM 35.6506 -83.1725 35° Northeast 394 453 17,900 -1,200 Descending Atlanta Center
06:37PM 35.7333 -83.0972 36° Northeast 381 438 16,700 -1,740 Descending Atlanta Center
06:38PM 35.8058 -83.0247 39° Northeast 360 414 14,500 -2,340 Descending Atlanta Center
06:39PM 35.8636 -82.9472 47° Northeast 323 372 12,100 -1,800 Descending Atlanta Center
06:40PM 35.9192 -82.8719 48° Northeast 288 331 11,000 -600 Descending Atlanta Center
06:41PM 35.9686 -82.7969 51° Northeast 278 320 11,000 -120 Level Atlanta Center
06:42PM 36.0200 -82.7269 48° Northeast 278 320 10,800 -1,440 Descending Atlanta Center
06:43PM 36.0694 -82.6619 47° Northeast 273 314 8,200 -1,920 Descending Atlanta Center
06:44PM 36.1356 -82.6272 23° Northeast 249 287 7,000 -900 Descending Atlanta Center
06:45PM 36.2000 -82.5953 22° Northeast 249 287 6,500 -960 Descending Atlanta Center
06:46PM 36.2558 -82.5686 21° North 244 281 5,100 -1,200 Descending Atlanta Center
06:47PM 36.3183 -82.5442 17° North 237 273 4,100 -1,020 Descending Atlanta Center
06:49PM 36.3321 -82.4170 82° East  Level FlightAware Approximate
06:56PM 36.4667 -82.4000 270° West  Level FlightAware Approximate
06:57PM 36.4752 -82.4074 270° West  Level Estimated
06:58PM 36.4752 -82.4074 270° West  Level Estimated
06:59PM 36.4752 -82.4074 270° West  Level Estimated